sensor_id;sensor_type;location;lat;lon;timestamp;pressure;altitude;pressure_sealevel;temperature;humidity
5691;BME280;2870;42.680;23.364;2023-05-10T00:02:21;95381.78;;;9.46;100.00
5691;BME280;2870;42.680;23.364;2023-05-10T00:04:48;95385.63;;;9.56;100.00
5691;BME280;2870;42.680;23.364;2023-05-10T00:07:14;95382.25;;;9.58;100.00
5691;BME280;2870;42.680;23.364;2023-05-10T00:09:44;95375.44;;;9.67;100.00
5691;BME280;2870;42.680;23.364;2023-05-10T00:12:10;95389.03;;;9.63;100.00
5691;BME280;2870;42.680;23.364;2023-05-10T00:14:37;95371.94;;;9.74;100.00
5691;BME280;2870;42.680;23.364;2023-05-10T00:17:04;95375.91;;;9.57;100.00
5691;BME280;2870;42.680;23.364;2023-05-10T00:19:31;95375.16;;;9.57;100.00
5691;BME280;2870;42.680;23.364;2023-05-10T00:21:57;95372.16;;;9.55;100.00
5691;BME280;2870;42.680;23.364;2023-05-10T00:24:24;95370.19;;;9.42;100.00
5691;BME280;2870;42.680;23.364;2023-05-10T00:26:52;95371.28;;;9.39;100.00
5691;BME280;2870;42.680;23.364;2023-05-10T00:29:19;95369.09;;;9.45;100.00
5691;BME280;2870;42.680;23.364;2023-05-10T00:31:46;95367.41;;;9.42;100.00
5691;BME280;2870;42.680;23.364;2023-05-10T00:34:13;95364.84;;;9.52;100.00
5691;BME280;2870;42.680;23.364;2023-05-10T00:36:40;95378.78;;;9.44;100.00
5691;BME280;2870;42.680;23.364;2023-05-10T00:39:06;95369.91;;;9.33;100.00
5691;BME280;2870;42.680;23.364;2023-05-10T00:41:33;95361.06;;;9.42;100.00
5691;BME280;2870;42.680;23.364;2023-05-10T00:44:02;95358.25;;;9.42;100.00
5691;BME280;2870;42.680;23.364;2023-05-10T00:46:29;95358.44;;;9.23;100.00
5691;BME280;2870;42.680;23.364;2023-05-10T00:48:57;95361.03;;;9.21;100.00
5691;BME280;2870;42.680;23.364;2023-05-10T00:51:24;95355.16;;;9.32;100.00
5691;BME280;2870;42.680;23.364;2023-05-10T00:53:51;95358.00;;;9.19;100.00
5691;BME280;2870;42.680;23.364;2023-05-10T00:56:18;95356.31;;;9.16;100.00
5691;BME280;2870;42.680;23.364;2023-05-10T00:58:45;95350.09;;;9.10;100.00
5691;BME280;2870;42.680;23.364;2023-05-10T01:01:14;95354.66;;;8.99;100.00
5691;BME280;2870;42.680;23.364;2023-05-10T01:03:40;95349.56;;;9.11;100.00
5691;BME280;2870;42.680;23.364;2023-05-10T01:06:08;95348.19;;;9.05;100.00
5691;BME280;2870;42.680;23.364;2023-05-10T01:08:35;95359.38;;;9.05;100.00
5691;BME280;2870;42.680;23.364;2023-05-10T01:11:02;95352.97;;;8.96;100.00
5691;BME280;2870;42.680;23.364;2023-05-10T01:13:33;95348.31;;;8.99;100.00
5691;BME280;2870;42.680;23.364;2023-05-10T01:16:01;95351.19;;;9.07;100.00
5691;BME280;2870;42.680;23.364;2023-05-10T01:18:30;95350.56;;;9.00;100.00
5691;BME280;2870;42.680;23.364;2023-05-10T01:21:12;95346.09;;;8.84;100.00
5691;BME280;2870;42.680;23.364;2023-05-10T01:23:51;95345.03;;;8.87;100.00
5691;BME280;2870;42.680;23.364;2023-05-10T01:26:43;95340.34;;;8.69;100.00
5691;BME280;2870;42.680;23.364;2023-05-10T01:32:32;95333.63;;;8.85;100.00
5691;BME280;2870;42.680;23.364;2023-05-10T01:35:06;95338.19;;;8.75;100.00
5691;BME280;2870;42.680;23.364;2023-05-10T01:37:41;95327.69;;;8.68;100.00
5691;BME280;2870;42.680;23.364;2023-05-10T01:40:14;95337.75;;;8.71;100.00
5691;BME280;2870;42.680;23.364;2023-05-10T01:42:48;95322.91;;;8.76;100.00
5691;BME280;2870;42.680;23.364;2023-05-10T01:45:21;95330.41;;;8.81;100.00
5691;BME280;2870;42.680;23.364;2023-05-10T01:47:58;95322.66;;;8.87;100.00
5691;BME280;2870;42.680;23.364;2023-05-10T01:50:30;95325.50;;;8.74;100.00
5691;BME280;2870;42.680;23.364;2023-05-10T01:52:59;95328.00;;;8.64;100.00
5691;BME280;2870;42.680;23.364;2023-05-10T01:55:29;95324.81;;;8.81;100.00
5691;BME280;2870;42.680;23.364;2023-05-10T01:58:02;95326.91;;;8.67;100.00
5691;BME280;2870;42.680;23.364;2023-05-10T02:00:30;95325.81;;;8.70;100.00
5691;BME280;2870;42.680;23.364;2023-05-10T02:03:01;95325.00;;;8.62;100.00
5691;BME280;2870;42.680;23.364;2023-05-10T02:05:32;95332.59;;;8.75;100.00
5691;BME280;2870;42.680;23.364;2023-05-10T02:08:00;95329.56;;;8.73;100.00
5691;BME280;2870;42.680;23.364;2023-05-10T02:10:28;95333.78;;;8.80;100.00
5691;BME280;2870;42.680;23.364;2023-05-10T02:12:58;95334.09;;;8.76;100.00
5691;BME280;2870;42.680;23.364;2023-05-10T02:15:26;95325.88;;;8.57;100.00
5691;BME280;2870;42.680;23.364;2023-05-10T02:17:55;95291.50;;;8.36;100.00
5691;BME280;2870;42.680;23.364;2023-05-10T02:20:24;95334.13;;;8.63;100.00
5691;BME280;2870;42.680;23.364;2023-05-10T02:22:54;95328.13;;;8.59;100.00
5691;BME280;2870;42.680;23.364;2023-05-10T02:25:23;95331.28;;;8.42;100.00
5691;BME280;2870;42.680;23.364;2023-05-10T02:27:51;95332.03;;;8.42;100.00
5691;BME280;2870;42.680;23.364;2023-05-10T02:30:20;95337.63;;;8.42;100.00
5691;BME280;2870;42.680;23.364;2023-05-10T02:32:49;95347.81;;;8.27;100.00
5691;BME280;2870;42.680;23.364;2023-05-10T02:35:16;95339.53;;;8.21;100.00
5691;BME280;2870;42.680;23.364;2023-05-10T02:37:45;95343.53;;;8.26;100.00
5691;BME280;2870;42.680;23.364;2023-05-10T02:40:14;95340.22;;;8.14;100.00
5691;BME280;2870;42.680;23.364;2023-05-10T02:42:43;95338.91;;;8.15;100.00
5691;BME280;2870;42.680;23.364;2023-05-10T02:45:13;95335.25;;;8.20;100.00
5691;BME280;2870;42.680;23.364;2023-05-10T02:47:41;95330.53;;;8.02;100.00
5691;BME280;2870;42.680;23.364;2023-05-10T02:50:09;95334.41;;;8.12;100.00
5691;BME280;2870;42.680;23.364;2023-05-10T02:52:40;95335.16;;;7.86;100.00
5691;BME280;2870;42.680;23.364;2023-05-10T02:55:13;95330.53;;;8.15;100.00
5691;BME280;2870;42.680;23.364;2023-05-10T02:57:46;95297.03;;;7.75;100.00
5691;BME280;2870;42.680;23.364;2023-05-10T03:00:15;95329.13;;;7.82;100.00
5691;BME280;2870;42.680;23.364;2023-05-10T03:02:41;95330.66;;;7.83;100.00
5691;BME280;2870;42.680;23.364;2023-05-10T03:05:08;95333.00;;;7.92;100.00
5691;BME280;2870;42.680;23.364;2023-05-10T03:07:36;95338.28;;;7.95;100.00
5691;BME280;2870;42.680;23.364;2023-05-10T03:10:03;95341.41;;;7.79;100.00
5691;BME280;2870;42.680;23.364;2023-05-10T03:12:43;95337.97;;;7.73;100.00
5691;BME280;2870;42.680;23.364;2023-05-10T03:15:15;95340.09;;;7.80;100.00
5691;BME280;2870;42.680;23.364;2023-05-10T03:17:49;95338.28;;;7.69;100.00
5691;BME280;2870;42.680;23.364;2023-05-10T03:20:22;95337.63;;;7.76;100.00
5691;BME280;2870;42.680;23.364;2023-05-10T03:22:55;95345.13;;;7.55;100.00
5691;BME280;2870;42.680;23.364;2023-05-10T03:25:22;95337.41;;;7.61;100.00
5691;BME280;2870;42.680;23.364;2023-05-10T03:27:52;95347.53;;;7.90;100.00
5691;BME280;2870;42.680;23.364;2023-05-10T03:30:19;95298.63;;;7.44;100.00
5691;BME280;2870;42.680;23.364;2023-05-10T03:32:46;95344.81;;;7.98;100.00
5691;BME280;2870;42.680;23.364;2023-05-10T03:35:13;95340.00;;;7.85;100.00
5691;BME280;2870;42.680;23.364;2023-05-10T03:37:40;95349.03;;;7.91;100.00
5691;BME280;2870;42.680;23.364;2023-05-10T03:40:08;95350.75;;;7.94;100.00
5691;BME280;2870;42.680;23.364;2023-05-10T03:42:34;95346.88;;;7.97;100.00
5691;BME280;2870;42.680;23.364;2023-05-10T03:45:03;95348.81;;;8.03;100.00
5691;BME280;2870;42.680;23.364;2023-05-10T03:47:30;95349.22;;;8.20;100.00
5691;BME280;2870;42.680;23.364;2023-05-10T03:49:57;95335.69;;;7.97;100.00
5691;BME280;2870;42.680;23.364;2023-05-10T03:52:24;95348.59;;;8.14;100.00
5691;BME280;2870;42.680;23.364;2023-05-10T03:54:51;95352.91;;;8.02;100.00
5691;BME280;2870;42.680;23.364;2023-05-10T03:57:17;95354.16;;;7.87;100.00
5691;BME280;2870;42.680;23.364;2023-05-10T03:59:44;95358.59;;;7.83;100.00
5691;BME280;2870;42.680;23.364;2023-05-10T04:02:12;95357.59;;;7.93;100.00
5691;BME280;2870;42.680;23.364;2023-05-10T04:04:39;95363.84;;;8.00;100.00
5691;BME280;2870;42.680;23.364;2023-05-10T04:07:06;95363.53;;;7.90;100.00
5691;BME280;2870;42.680;23.364;2023-05-10T04:09:33;95358.56;;;7.69;100.00
5691;BME280;2870;42.680;23.364;2023-05-10T04:11:59;95366.84;;;7.88;100.00
5691;BME280;2870;42.680;23.364;2023-05-10T04:14:27;95363.28;;;7.88;100.00
5691;BME280;2870;42.680;23.364;2023-05-10T04:16:54;95367.28;;;7.92;100.00
5691;BME280;2870;42.680;23.364;2023-05-10T04:19:23;95372.34;;;8.07;100.00
5691;BME280;2870;42.680;23.364;2023-05-10T04:21:49;95373.84;;;8.35;100.00
5691;BME280;2870;42.680;23.364;2023-05-10T04:24:16;95374.25;;;7.99;100.00
5691;BME280;2870;42.680;23.364;2023-05-10T04:26:43;95368.16;;;8.14;100.00
5691;BME280;2870;42.680;23.364;2023-05-10T04:29:11;95366.63;;;8.00;100.00
5691;BME280;2870;42.680;23.364;2023-05-10T04:31:38;95371.38;;;8.05;100.00
5691;BME280;2870;42.680;23.364;2023-05-10T04:34:04;95381.91;;;8.12;100.00
5691;BME280;2870;42.680;23.364;2023-05-10T04:36:33;95375.78;;;8.00;100.00
5691;BME280;2870;42.680;23.364;2023-05-10T04:39:02;95368.34;;;8.16;99.31
5691;BME280;2870;42.680;23.364;2023-05-10T04:41:29;95383.19;;;8.11;99.50
5691;BME280;2870;42.680;23.364;2023-05-10T04:43:56;95375.34;;;8.09;100.00
5691;BME280;2870;42.680;23.364;2023-05-10T04:46:23;95381.47;;;8.21;98.17
5691;BME280;2870;42.680;23.364;2023-05-10T04:48:50;95375.38;;;8.36;98.89
5691;BME280;2870;42.680;23.364;2023-05-10T04:51:16;95371.91;;;8.30;99.47
5691;BME280;2870;42.680;23.364;2023-05-10T04:53:44;95373.53;;;8.38;99.47
5691;BME280;2870;42.680;23.364;2023-05-10T04:56:11;95378.25;;;8.30;98.95
5691;BME280;2870;42.680;23.364;2023-05-10T04:58:38;95371.56;;;8.33;99.99
5691;BME280;2870;42.680;23.364;2023-05-10T05:01:05;95365.25;;;8.06;99.41
5691;BME280;2870;42.680;23.364;2023-05-10T05:03:33;95369.44;;;8.13;100.00
5691;BME280;2870;42.680;23.364;2023-05-10T05:06:00;95377.50;;;8.30;100.00
5691;BME280;2870;42.680;23.364;2023-05-10T05:08:27;95378.38;;;8.38;99.11
5691;BME280;2870;42.680;23.364;2023-05-10T05:10:55;95383.72;;;8.49;99.94
5691;BME280;2870;42.680;23.364;2023-05-10T05:13:22;95379.75;;;8.44;100.00
5691;BME280;2870;42.680;23.364;2023-05-10T05:15:49;95387.28;;;8.23;99.44
5691;BME280;2870;42.680;23.364;2023-05-10T05:18:15;95384.72;;;8.52;99.27
5691;BME280;2870;42.680;23.364;2023-05-10T05:20:42;95382.53;;;8.44;99.57
5691;BME280;2870;42.680;23.364;2023-05-10T05:23:09;95375.47;;;8.43;100.00
5691;BME280;2870;42.680;23.364;2023-05-10T05:25:36;95386.63;;;8.57;99.51
5691;BME280;2870;42.680;23.364;2023-05-10T05:28:04;95385.50;;;8.73;99.20
5691;BME280;2870;42.680;23.364;2023-05-10T05:30:31;95382.31;;;8.56;97.29
5691;BME280;2870;42.680;23.364;2023-05-10T05:32:57;95392.19;;;8.70;99.06
5691;BME280;2870;42.680;23.364;2023-05-10T05:35:24;95390.28;;;8.65;98.26
5691;BME280;2870;42.680;23.364;2023-05-10T05:37:51;95397.91;;;8.64;99.03
5691;BME280;2870;42.680;23.364;2023-05-10T05:40:18;95393.06;;;8.65;98.95
5691;BME280;2870;42.680;23.364;2023-05-10T05:42:45;95395.78;;;8.57;98.33
5691;BME280;2870;42.680;23.364;2023-05-10T05:45:13;95397.78;;;8.70;99.87
5691;BME280;2870;42.680;23.364;2023-05-10T05:47:40;95397.03;;;8.69;97.54
5691;BME280;2870;42.680;23.364;2023-05-10T05:50:08;95390.84;;;8.84;98.57
5691;BME280;2870;42.680;23.364;2023-05-10T05:52:35;95394.53;;;8.79;97.82
5691;BME280;2870;42.680;23.364;2023-05-10T05:55:02;95408.63;;;8.73;99.04
5691;BME280;2870;42.680;23.364;2023-05-10T05:57:29;95394.16;;;8.48;100.00
5691;BME280;2870;42.680;23.364;2023-05-10T05:59:56;95410.84;;;8.41;99.63
5691;BME280;2870;42.680;23.364;2023-05-10T06:02:25;95399.00;;;8.48;100.00
5691;BME280;2870;42.680;23.364;2023-05-10T06:04:51;95398.69;;;8.38;100.00
5691;BME280;2870;42.680;23.364;2023-05-10T06:07:18;95403.75;;;8.40;100.00
5691;BME280;2870;42.680;23.364;2023-05-10T06:09:45;95407.94;;;8.46;100.00
5691;BME280;2870;42.680;23.364;2023-05-10T06:12:12;95403.06;;;8.20;100.00
5691;BME280;2870;42.680;23.364;2023-05-10T06:14:39;95406.53;;;8.53;100.00
5691;BME280;2870;42.680;23.364;2023-05-10T06:17:06;95409.53;;;8.55;100.00
5691;BME280;2870;42.680;23.364;2023-05-10T06:19:34;95407.94;;;8.46;99.27
5691;BME280;2870;42.680;23.364;2023-05-10T06:22:02;95410.94;;;8.48;99.47
5691;BME280;2870;42.680;23.364;2023-05-10T06:24:28;95412.97;;;8.48;99.93
5691;BME280;2870;42.680;23.364;2023-05-10T06:26:55;95423.38;;;8.61;99.44
5691;BME280;2870;42.680;23.364;2023-05-10T06:29:25;95415.97;;;8.63;98.23
5691;BME280;2870;42.680;23.364;2023-05-10T06:31:52;95418.31;;;8.72;98.79
5691;BME280;2870;42.680;23.364;2023-05-10T06:34:19;95426.19;;;8.74;96.72
5691;BME280;2870;42.680;23.364;2023-05-10T06:36:47;95418.31;;;8.86;97.40
5691;BME280;2870;42.680;23.364;2023-05-10T06:39:14;95417.75;;;8.87;97.64
5691;BME280;2870;42.680;23.364;2023-05-10T06:41:41;95420.38;;;8.72;97.89
5691;BME280;2870;42.680;23.364;2023-05-10T06:44:08;95425.13;;;8.50;97.06
5691;BME280;2870;42.680;23.364;2023-05-10T06:46:35;95427.28;;;8.44;96.23
5691;BME280;2870;42.680;23.364;2023-05-10T06:49:01;95423.78;;;8.78;95.50
5691;BME280;2870;42.680;23.364;2023-05-10T06:51:28;95421.44;;;8.82;94.95
5691;BME280;2870;42.680;23.364;2023-05-10T06:53:56;95418.69;;;9.03;94.58
5691;BME280;2870;42.680;23.364;2023-05-10T06:56:23;95421.75;;;8.79;93.80
5691;BME280;2870;42.680;23.364;2023-05-10T06:58:50;95424.66;;;8.86;95.71
5691;BME280;2870;42.680;23.364;2023-05-10T07:01:17;95427.22;;;8.97;94.28
5691;BME280;2870;42.680;23.364;2023-05-10T07:03:43;95427.28;;;9.05;94.13
5691;BME280;2870;42.680;23.364;2023-05-10T07:06:10;95422.66;;;9.08;93.28
5691;BME280;2870;42.680;23.364;2023-05-10T07:08:37;95434.00;;;9.02;94.01
5691;BME280;2870;42.680;23.364;2023-05-10T07:11:06;95424.72;;;8.94;93.24
5691;BME280;2870;42.680;23.364;2023-05-10T07:13:34;95428.13;;;9.13;92.45
5691;BME280;2870;42.680;23.364;2023-05-10T07:16:01;95428.09;;;8.79;92.08
5691;BME280;2870;42.680;23.364;2023-05-10T07:18:28;95430.00;;;8.97;92.65
5691;BME280;2870;42.680;23.364;2023-05-10T07:20:57;95435.75;;;9.13;92.55
5691;BME280;2870;42.680;23.364;2023-05-10T07:23:24;95431.72;;;9.00;91.79
5691;BME280;2870;42.680;23.364;2023-05-10T07:25:51;95430.47;;;9.22;92.15
5691;BME280;2870;42.680;23.364;2023-05-10T07:28:20;95432.81;;;9.52;92.08
5691;BME280;2870;42.680;23.364;2023-05-10T07:30:46;95438.34;;;9.45;90.34
5691;BME280;2870;42.680;23.364;2023-05-10T07:33:14;95446.50;;;9.22;90.03
5691;BME280;2870;42.680;23.364;2023-05-10T07:35:41;95442.66;;;9.12;89.44
5691;BME280;2870;42.680;23.364;2023-05-10T07:38:08;95435.81;;;9.34;89.46
5691;BME280;2870;42.680;23.364;2023-05-10T07:40:36;95451.66;;;9.31;89.24
5691;BME280;2870;42.680;23.364;2023-05-10T07:43:03;95449.00;;;9.46;89.84
5691;BME280;2870;42.680;23.364;2023-05-10T07:45:33;95450.88;;;9.65;89.33
5691;BME280;2870;42.680;23.364;2023-05-10T07:47:59;95451.50;;;9.71;88.64
5691;BME280;2870;42.680;23.364;2023-05-10T07:50:26;95449.00;;;9.46;88.92
5691;BME280;2870;42.680;23.364;2023-05-10T07:52:53;95445.81;;;9.42;87.98
5691;BME280;2870;42.680;23.364;2023-05-10T07:55:20;95441.28;;;9.39;88.81
5691;BME280;2870;42.680;23.364;2023-05-10T07:57:47;95450.38;;;9.53;88.73
5691;BME280;2870;42.680;23.364;2023-05-10T08:00:18;95450.03;;;9.56;88.17
5691;BME280;2870;42.680;23.364;2023-05-10T08:02:47;95455.44;;;9.54;89.13
5691;BME280;2870;42.680;23.364;2023-05-10T08:05:14;95411.06;;;9.24;87.25
5691;BME280;2870;42.680;23.364;2023-05-10T08:07:41;95454.22;;;9.84;87.31
5691;BME280;2870;42.680;23.364;2023-05-10T08:10:08;95449.25;;;9.35;86.99
5691;BME280;2870;42.680;23.364;2023-05-10T08:12:36;95452.19;;;9.29;86.54
5691;BME280;2870;42.680;23.364;2023-05-10T08:15:03;95457.81;;;9.50;87.37
5691;BME280;2870;42.680;23.364;2023-05-10T08:17:30;95455.84;;;9.59;87.56
5691;BME280;2870;42.680;23.364;2023-05-10T08:19:59;95453.50;;;9.49;86.73
5691;BME280;2870;42.680;23.364;2023-05-10T08:22:26;95452.28;;;9.79;86.34
5691;BME280;2870;42.680;23.364;2023-05-10T08:24:52;95451.63;;;9.65;86.16
5691;BME280;2870;42.680;23.364;2023-05-10T08:27:19;95463.97;;;9.49;86.84
5691;BME280;2870;42.680;23.364;2023-05-10T08:29:46;95451.03;;;9.46;87.48
5691;BME280;2870;42.680;23.364;2023-05-10T08:32:13;95457.22;;;9.65;87.05
5691;BME280;2870;42.680;23.364;2023-05-10T08:34:39;95456.50;;;9.51;89.16
5691;BME280;2870;42.680;23.364;2023-05-10T08:37:07;95459.88;;;9.50;89.85
5691;BME280;2870;42.680;23.364;2023-05-10T08:39:35;95466.44;;;9.73;91.18
5691;BME280;2870;42.680;23.364;2023-05-10T08:42:04;95455.56;;;9.70;91.28
5691;BME280;2870;42.680;23.364;2023-05-10T08:44:34;95472.03;;;9.73;89.85
5691;BME280;2870;42.680;23.364;2023-05-10T08:47:04;95414.03;;;9.06;93.71
5691;BME280;2870;42.680;23.364;2023-05-10T08:49:32;95463.38;;;9.29;95.00
5691;BME280;2870;42.680;23.364;2023-05-10T08:52:02;95457.19;;;9.44;94.32
5691;BME280;2870;42.680;23.364;2023-05-10T08:54:33;95457.19;;;9.44;96.29
5691;BME280;2870;42.680;23.364;2023-05-10T08:57:00;95465.41;;;9.42;95.89
5691;BME280;2870;42.680;23.364;2023-05-10T08:59:27;95464.56;;;9.34;95.35
5691;BME280;2870;42.680;23.364;2023-05-10T09:01:55;95457.19;;;9.44;95.51
5691;BME280;2870;42.680;23.364;2023-05-10T09:04:24;95460.41;;;9.48;94.45
5691;BME280;2870;42.680;23.364;2023-05-10T09:06:50;95458.16;;;9.68;96.13
5691;BME280;2870;42.680;23.364;2023-05-10T09:09:17;95454.75;;;9.62;95.19
5691;BME280;2870;42.680;23.364;2023-05-10T09:11:46;95450.53;;;9.47;93.15
5691;BME280;2870;42.680;23.364;2023-05-10T09:14:14;95449.88;;;9.41;92.78
5691;BME280;2870;42.680;23.364;2023-05-10T09:16:42;95452.03;;;9.48;92.40
5691;BME280;2870;42.680;23.364;2023-05-10T09:19:09;95451.00;;;9.80;92.84
5691;BME280;2870;42.680;23.364;2023-05-10T09:21:36;95450.09;;;9.85;92.95
5691;BME280;2870;42.680;23.364;2023-05-10T09:24:04;95451.69;;;9.94;92.21
5691;BME280;2870;42.680;23.364;2023-05-10T09:26:31;95450.25;;;10.00;92.35
5691;BME280;2870;42.680;23.364;2023-05-10T09:29:00;95464.88;;;10.06;92.47
5691;BME280;2870;42.680;23.364;2023-05-10T09:31:43;95451.53;;;9.78;92.93
5691;BME280;2870;42.680;23.364;2023-05-10T09:34:11;95454.47;;;9.73;93.34
5691;BME280;2870;42.680;23.364;2023-05-10T09:36:50;95453.50;;;9.91;93.47
5691;BME280;2870;42.680;23.364;2023-05-10T09:39:17;95448.47;;;10.11;91.66
5691;BME280;2870;42.680;23.364;2023-05-10T09:41:44;95449.34;;;10.05;92.06
5691;BME280;2870;42.680;23.364;2023-05-10T09:44:16;95443.53;;;10.24;90.87
5691;BME280;2870;42.680;23.364;2023-05-10T09:46:49;95446.44;;;10.19;88.32
5691;BME280;2870;42.680;23.364;2023-05-10T09:49:15;95443.38;;;10.30;88.09
5691;BME280;2870;42.680;23.364;2023-05-10T09:51:42;95437.44;;;10.33;87.71
5691;BME280;2870;42.680;23.364;2023-05-10T09:54:10;95446.16;;;10.58;88.02
5691;BME280;2870;42.680;23.364;2023-05-10T09:56:38;95433.75;;;10.46;88.94
5691;BME280;2870;42.680;23.364;2023-05-10T09:59:07;95429.78;;;10.13;87.22
5691;BME280;2870;42.680;23.364;2023-05-10T10:01:36;95434.03;;;10.27;86.28
5691;BME280;2870;42.680;23.364;2023-05-10T10:04:04;95434.91;;;10.01;85.65
5691;BME280;2870;42.680;23.364;2023-05-10T10:06:36;95433.88;;;10.33;87.16
5691;BME280;2870;42.680;23.364;2023-05-10T10:09:03;95425.59;;;10.56;86.39
5691;BME280;2870;42.680;23.364;2023-05-10T10:11:31;95428.88;;;10.75;86.23
5691;BME280;2870;42.680;23.364;2023-05-10T10:13:58;95433.66;;;10.96;85.36
5691;BME280;2870;42.680;23.364;2023-05-10T10:16:25;95412.84;;;10.55;83.42
5691;BME280;2870;42.680;23.364;2023-05-10T10:18:55;95419.63;;;10.59;84.16
5691;BME280;2870;42.680;23.364;2023-05-10T10:21:22;95423.72;;;10.58;85.25
5691;BME280;2870;42.680;23.364;2023-05-10T10:23:49;95422.69;;;10.77;83.83
5691;BME280;2870;42.680;23.364;2023-05-10T10:26:17;95420.44;;;10.75;82.57
5691;BME280;2870;42.680;23.364;2023-05-10T10:28:49;95423.53;;;11.00;82.60
5691;BME280;2870;42.680;23.364;2023-05-10T10:31:26;95422.69;;;11.21;81.78
5691;BME280;2870;42.680;23.364;2023-05-10T10:34:00;95415.28;;;11.61;81.44
5691;BME280;2870;42.680;23.364;2023-05-10T10:36:28;95432.50;;;10.91;81.72
5691;BME280;2870;42.680;23.364;2023-05-10T10:38:59;95421.63;;;10.87;81.24
5691;BME280;2870;42.680;23.364;2023-05-10T10:41:29;95425.41;;;10.98;81.24
5691;BME280;2870;42.680;23.364;2023-05-10T10:44:24;95412.97;;;11.29;81.70
5691;BME280;2870;42.680;23.364;2023-05-10T10:47:05;95423.31;;;11.42;81.04
5691;BME280;2870;42.680;23.364;2023-05-10T10:49:42;95421.00;;;11.25;80.85
5691;BME280;2870;42.680;23.364;2023-05-10T10:52:20;95424.03;;;11.35;81.29
5691;BME280;2870;42.680;23.364;2023-05-10T10:54:50;95420.34;;;11.63;79.21
5691;BME280;2870;42.680;23.364;2023-05-10T10:57:19;95422.50;;;11.26;80.07
5691;BME280;2870;42.680;23.364;2023-05-10T10:59:47;95427.22;;;11.31;80.68
5691;BME280;2870;42.680;23.364;2023-05-10T11:02:44;95430.09;;;11.70;81.02
5691;BME280;2870;42.680;23.364;2023-05-10T11:08:19;95414.13;;;11.57;79.49
5691;BME280;2870;42.680;23.364;2023-05-10T11:11:02;95421.41;;;11.37;81.09
5691;BME280;2870;42.680;23.364;2023-05-10T11:13:31;95418.72;;;11.16;80.87
5691;BME280;2870;42.680;23.364;2023-05-10T11:15:58;95420.72;;;11.52;81.19
5691;BME280;2870;42.680;23.364;2023-05-10T11:18:27;95380.50;;;11.05;80.81
5691;BME280;2870;42.680;23.364;2023-05-10T11:20:58;95416.53;;;11.30;81.81
5691;BME280;2870;42.680;23.364;2023-05-10T11:23:31;95413.94;;;11.47;81.57
5691;BME280;2870;42.680;23.364;2023-05-10T11:25:59;95415.44;;;11.48;81.79
5691;BME280;2870;42.680;23.364;2023-05-10T11:28:27;95383.13;;;11.03;82.29
5691;BME280;2870;42.680;23.364;2023-05-10T11:30:54;95419.69;;;11.19;82.08
5691;BME280;2870;42.680;23.364;2023-05-10T11:33:21;95422.97;;;11.68;82.08
5691;BME280;2870;42.680;23.364;2023-05-10T11:35:49;95419.19;;;11.43;82.21
5691;BME280;2870;42.680;23.364;2023-05-10T11:38:17;95418.06;;;11.61;81.61
5691;BME280;2870;42.680;23.364;2023-05-10T11:40:44;95422.78;;;11.66;81.45
5691;BME280;2870;42.680;23.364;2023-05-10T11:43:11;95409.84;;;11.79;80.41
5691;BME280;2870;42.680;23.364;2023-05-10T11:45:38;95418.88;;;12.08;80.27
5691;BME280;2870;42.680;23.364;2023-05-10T11:48:06;95418.69;;;12.13;80.23
5691;BME280;2870;42.680;23.364;2023-05-10T11:50:33;95412.69;;;11.94;79.74
5691;BME280;2870;42.680;23.364;2023-05-10T11:53:00;95420.16;;;11.76;80.51
5691;BME280;2870;42.680;23.364;2023-05-10T11:55:28;95417.16;;;11.66;82.16
5691;BME280;2870;42.680;23.364;2023-05-10T11:58:01;95412.69;;;11.94;80.58
5691;BME280;2870;42.680;23.364;2023-05-10T12:00:29;95416.63;;;11.83;80.10
5691;BME280;2870;42.680;23.364;2023-05-10T12:02:57;95371.16;;;11.10;82.55
5691;BME280;2870;42.680;23.364;2023-05-10T12:05:24;95412.41;;;11.38;82.02
5691;BME280;2870;42.680;23.364;2023-05-10T12:07:51;95401.97;;;11.54;82.80
5691;BME280;2870;42.680;23.364;2023-05-10T12:10:25;95406.50;;;11.80;81.89
5691;BME280;2870;42.680;23.364;2023-05-10T12:12:54;95403.88;;;12.05;80.29
5691;BME280;2870;42.680;23.364;2023-05-10T12:15:22;95402.22;;;12.10;79.17
5691;BME280;2870;42.680;23.364;2023-05-10T12:17:49;95401.63;;;11.81;80.69
5691;BME280;2870;42.680;23.364;2023-05-10T12:20:18;95407.63;;;11.85;80.29
5691;BME280;2870;42.680;23.364;2023-05-10T12:22:46;95400.91;;;11.88;79.93
5691;BME280;2870;42.680;23.364;2023-05-10T12:25:14;95400.63;;;11.40;81.51
5691;BME280;2870;42.680;23.364;2023-05-10T12:27:48;95393.72;;;11.56;82.11
5691;BME280;2870;42.680;23.364;2023-05-10T12:30:20;95385.50;;;11.58;81.86
5691;BME280;2870;42.680;23.364;2023-05-10T12:32:47;95385.91;;;11.93;80.47
5691;BME280;2870;42.680;23.364;2023-05-10T12:35:14;95397.13;;;12.16;80.14
5691;BME280;2870;42.680;23.364;2023-05-10T12:37:42;95390.75;;;12.15;79.75
5691;BME280;2870;42.680;23.364;2023-05-10T12:40:10;95385.13;;;11.77;80.28
5691;BME280;2870;42.680;23.364;2023-05-10T12:42:38;95378.75;;;11.69;80.55
5691;BME280;2870;42.680;23.364;2023-05-10T12:45:06;95384.03;;;11.88;80.68
5691;BME280;2870;42.680;23.364;2023-05-10T12:47:35;95384.03;;;11.96;79.66
5691;BME280;2870;42.680;23.364;2023-05-10T12:50:02;95388.69;;;11.85;80.19
5691;BME280;2870;42.680;23.364;2023-05-10T12:52:30;95376.72;;;12.00;79.24
5691;BME280;2870;42.680;23.364;2023-05-10T12:54:57;95379.13;;;11.81;79.64
5691;BME280;2870;42.680;23.364;2023-05-10T12:57:24;95373.88;;;11.54;79.91
5691;BME280;2870;42.680;23.364;2023-05-10T12:59:51;95368.25;;;11.62;81.65
5691;BME280;2870;42.680;23.364;2023-05-10T13:02:18;95369.56;;;11.61;81.02
5691;BME280;2870;42.680;23.364;2023-05-10T13:04:47;95372.00;;;11.80;80.05
5691;BME280;2870;42.680;23.364;2023-05-10T13:07:14;95363.94;;;12.07;79.72
5691;BME280;2870;42.680;23.364;2023-05-10T13:09:41;95371.09;;;11.85;80.45
5691;BME280;2870;42.680;23.364;2023-05-10T13:12:08;95363.00;;;11.66;80.73
5691;BME280;2870;42.680;23.364;2023-05-10T13:14:35;95362.25;;;11.73;80.01
5691;BME280;2870;42.680;23.364;2023-05-10T13:17:02;95363.22;;;11.91;80.72
5691;BME280;2870;42.680;23.364;2023-05-10T13:19:29;95356.88;;;11.83;80.51
5691;BME280;2870;42.680;23.364;2023-05-10T13:21:57;95354.78;;;11.91;80.57
5691;BME280;2870;42.680;23.364;2023-05-10T13:24:24;95360.03;;;12.02;79.42
5691;BME280;2870;42.680;23.364;2023-05-10T13:26:50;95351.44;;;11.92;79.39
5691;BME280;2870;42.680;23.364;2023-05-10T13:29:17;95350.84;;;11.71;79.39